Rechercher aéroport 
image banner adimage banner adimage banner ad
image banner ad

19CL - Palisades Ranch

Situé à Helendale, United States

ICAO - 19CL, IATA -

Données fournies par Airmate  

Information générale

Coordonnées: N36°50'19" W119°39'33"
Élévation : 390 feet MSL.
Variation magnétique : 14° East
Voir autres Aéroports à California

Données opérationnelles

Special qualification required
Heure actuelle UTC:
Heure actuelle locale:
Météo à : KFAT - Fresno Yosemite Intl ( 9 km )
METAR: KFAT 251553Z 00000KT 10SM BKN250 28/10 A2990 RMK AO2 SLP121 T02780100 $
TAF: KFAT 251120Z 2512/2612 00000KT P6SM FEW250 FM260100 31009KT P6SM SCT250 FM261100 00000KT P6SM SCT250
Voir NOTAMs / SUP AIP / TFR affectant cet aéroport [VIEW]
Fréquences de communication: [VIEW]

Pistes:

Coordonnées de l'aéroport

Adresse: Helendale United States

Vue satellite de 19CL